Aérodrome de la Montagne Noire

LFMG · Alta Garonna, Linguadoca-Rossiglione-Midi-Pirenei, Francia

Storia di METAR LFMG · Aérodrome de la Montagne Noire

Di seguito sono riportati i METAR degli ultimi giorni. Seleziona un anno per sfogliare i METAR più vecchi, dall'anno 2007 in poi.

29 novembre 2022

Tempo Codice Tempo metereologico Temp. Vista Base nuvolosa Vento METAR/SPECI
08:30
I
7 °C 10 km+ 700 ft 300° 300° 5 kt METAR LFCK 290730Z AUTO 30005KT 9999 BKN007/// BKN020/// OVC039/// ///TCU 07/07 Q1020 TEMPO BKN008
08:00
I
7 °C 10 km+ 500 ft 280° 280° 4 kt METAR LFCK 290700Z AUTO 28004KT 9999 -RA BKN005/// BKN041/// BKN047/// ///CB 07/07 Q1020 TEMPO BKN008
07:30
V
7 °C 10 km+ 4.400 ft 320° 320° 3 kt METAR LFCK 290630Z AUTO 32003KT 9999 -RA FEW007/// SCT038/// OVC044/// ///CB 07/07 Q1019 TEMPO BKN008
07:00
M
7 °C 6 km 2.700 ft 340° 340° 5 kt METAR LFCK 290600Z AUTO 34005KT 6000 RA FEW008/// SCT022/// BKN027/// ///CB 07/07 Q1019 TEMPO NSW BKN008
06:30
M
7 °C 10 km+ 2.000 ft 330° 330° 4 kt METAR LFCK 290530Z AUTO 33004KT 9999 FEW008/// OVC020/// ///TCU 07/07 Q1019
06:00
M
7 °C 10 km+ 2.000 ft 310° 310° 5 kt METAR LFCK 290500Z AUTO 31005KT 9999 BKN020 OVC031 07/07 Q1019
05:30
M
7 °C 10 km+ 2.100 ft 320° 320° 6 kt METAR LFCK 290430Z AUTO 32006KT 9999 FEW010 BKN021 BKN029 07/07 Q1019
05:00
M
8 °C 10 km+ 2.600 ft 330° 330° 7 kt METAR LFCK 290400Z AUTO 33007KT 9999 -DZ FEW009 SCT017 OVC026 08/07 Q1019
04:30
I
8 °C 10 km+ 700 ft 320° 320° 9 kt METAR LFCK 290330Z AUTO 32009KT 9999 -DZ BKN007 BKN011 BKN016 08/07 Q1019
04:00
I
8 °C 10 km+ 800 ft 310° 310° 12 kt METAR LFCK 290300Z AUTO 31012KT 9999 BKN008 BKN015 BKN022 08/07 Q1019
03:30
I
8 °C 10 km+ 700 ft 300° 300° 12 kt METAR LFCK 290230Z AUTO 30012KT 9999 OVC007 08/07 Q1019
03:00
I
8 °C 10 km+ 600 ft 300° 300° 13 kt METAR LFCK 290200Z AUTO 30013KT 9999 OVC006 08/07 Q1019
02:30
I
8 °C 10 km+ 700 ft 300° 300° 12 kt METAR LFCK 290130Z AUTO 30012KT 9999 OVC007/// ///TCU 08/07 Q1019
02:00
I
8 °C 10 km+ 700 ft 300° 300° 9 kt METAR LFCK 290100Z AUTO 30009KT 9999 OVC007 08/07 Q1019
01:30
I
8 °C 10 km+ 700 ft 290° 290° 10 kt METAR LFCK 290030Z AUTO 29010KT 9999 OVC007 08/07 Q1019
01:00
I
8 °C 10 km+ 800 ft 270° 270° 12 kt METAR LFCK 290000Z AUTO 27012KT 9999 OVC008/// ///TCU 08/07 Q1019
00:30
M
8 °C 10 km+ 1.000 ft 270° 270° 12 kt METAR LFCK 282330Z AUTO 27012KT 9999 BKN010/// OVC016/// ///TCU 08/07 Q1020
00:00
M
8 °C 10 km+ 1.200 ft 280° 280° 10 kt METAR LFCK 282300Z AUTO 28010KT 9999 OVC012 08/07 Q1020

28 novembre 2022

Tempo Codice Tempo metereologico Temp. Vista Base nuvolosa Vento METAR/SPECI
23:30
M
9 °C 10 km+ 1.300 ft 270° 270° 13 kt METAR LFCK 282230Z AUTO 27013KT 9999 OVC013 09/07 Q1020
23:00
M
9 °C 10 km+ 1.400 ft 270° 270° 13 kt METAR LFCK 282200Z AUTO 27013KT 9999 OVC014 09/07 Q1020 TEMPO BKN015 BKN020
22:30
M
9 °C 10 km+ 1.400 ft 290° 290° 9 kt METAR LFCK 282130Z AUTO 29009KT 9999 BKN014/// OVC021/// ///CB 09/07 Q1020 BECMG OVC006
22:00
M
9 °C 10 km+ 1.500 ft 270° 270° 14 kt METAR LFCK 282100Z AUTO 27014KT 9999 OVC015/// ///CB 09/07 Q1020 BECMG BKN015 BKN020
21:30
M
9 °C 10 km+ 1.800 ft 260° 260° 13 kt METAR LFCK 282030Z AUTO 26013KT 9999 -DZ BKN018/// BKN034/// OVC049/// ///CB 09/07 Q1019 BECMG BKN015 BKN020
21:00
V
9 °C 10 km+ 3.200 ft 270° 270° 12 kt METAR LFCK 282000Z AUTO 27012KT 9999 -DZ SCT022/// BKN032/// OVC043/// ///CB 09/07 Q1019 TEMPO 4000 SHRA BECMG BKN015 BKN020
20:30
M
9 °C 10 km+ 1.600 ft 270° 270° 15 kt METAR LFCK 281930Z AUTO 27015KT 9999 -RA BKN016/// BKN026/// BKN042/// ///CB 09/07 Q1019 TEMPO 4000 SHRA BECMG BKN015 BKN020
20:00
M
9 °C 10 km+ 1.700 ft 260° 260° 15 kt METAR LFCK 281900Z AUTO 26015KT 9999 OVC017/// ///CB 09/07 Q1019 TEMPO 4000 SHRA BKN012 BKN020TCU
19:30
M
9 °C 10 km+ 1.700 ft 270° 270° 11 kt METAR LFCK 281830Z AUTO 27011KT 9999 OVC017/// ///CB 09/08 Q1019 TEMPO 4000 SHRA BKN012 BKN020TCU
19:00
M
9 °C 10 km+ 1.400 ft 270° 270° 9 kt METAR LFCK 281800Z AUTO 27009KT 9999 OVC014/// ///TCU 09/08 Q1019 TEMPO 4000 SHRA
18:30
M
9 °C 10 km+ 1.500 ft 290° 290° 5 kt METAR LFCK 281730Z AUTO 29005KT 9999 BKN015/// OVC021/// ///CB 09/08 Q1019 BECMG OVC006
18:00
V
9 °C 10 km+ 3.600 ft 300° 300° 5 kt METAR LFCK 281700Z AUTO 30005KT 9999 FEW024/// BKN036/// OVC046/// ///CB 09/08 Q1019 TEMPO 4000 SHRA BECMG OVC006
17:30
V
9 °C 10 km+ 4.600 ft 310° 310° 6 kt METAR LFCK 281630Z AUTO 31006KT 9999 FEW038/// BKN046/// BKN066/// ///TCU 09/09 Q1019 TEMPO 4000 SHRA BECMG OVC006
17:00
V
10 °C 10 km+ 4.900 ft 300° 300° 10 kt METAR LFCK 281600Z AUTO 30010KT 9999 FEW021/// SCT037/// BKN049/// ///CB 10/08 Q1018 TEMPO 4000 SHRA BKN013 BKN035TCU
16:30
I
10 °C 2,6 km 4.400 ft 310° 310° 12 kt METAR LFCK 281530Z AUTO 31012KT 280V350 7000 2600 RA FEW022/// SCT036/// BKN044/// ///CB 10/08 Q1018 TEMPO 4000 SHRA BKN013 BKN035TCU
16:00
V
11 °C 10 km+ 3.300 ft 290° 290° 8 kt METAR LFCK 281500Z AUTO 29008KT 9999 BKN033/// BKN054/// OVC190/// ///CB 11/08 Q1018 TEMPO 4000 SHRA BKN013 BKN035TCU
15:30
V
11 °C 10 km+ 3.900 ft 320° 320° 9 kt METAR LFCK 281430Z AUTO 32009KT 9999 FEW014/// SCT025/// BKN039/// ///CB 11/08 Q1018 TEMPO 4000 SHRA BKN013 BKN035TCU
15:00
M
11 °C 10 km+ 1.600 ft 300° 300° 11 kt METAR LFCK 281400Z AUTO 30011KT 9999 BKN016/// BKN033/// BKN043/// ///TCU 11/08 Q1018 TEMPO 4000 SHRA BKN013 BKN035TCU
14:30
M
11 °C 10 km+ 1.900 ft 300° 300° 11 kt METAR LFCK 281330Z AUTO 30011KT 9999 BKN019 BKN025 OVC190 11/08 Q1018 TEMPO 4000 SHRA BKN013 BKN035TCU
14:00
M
10 °C 10 km+ 1.600 ft 300° 300° 13 kt METAR LFCK 281300Z AUTO 30013KT 9999 BKN016 OVC023 10/08 Q1018 TEMPO SCT025TCU
13:30
M
10 °C 10 km+ 1.400 ft 310° 310° 11 kt METAR LFCK 281230Z AUTO 31011KT 9999 BKN014 OVC020 10/08 Q1019 TEMPO SCT025TCU
13:00
M
10 °C 10 km+ 1.500 ft 300° 300° 14 kt METAR LFCK 281200Z AUTO 30014KT 9999 BKN015 OVC021 10/08 Q1019 TEMPO SCT025TCU
12:30
M
10 °C 10 km+ 1.200 ft 300° 300° 13 kt METAR LFCK 281130Z AUTO 30013KT 9999 BKN012 OVC019 10/08 Q1019 TEMPO SCT025TCU
12:00
M
9 °C 10 km+ 1.100 ft 290° 290° 11 kt METAR LFCK 281100Z AUTO 29011KT 9999 OVC011 09/08 Q1019 TEMPO SCT025TCU
11:30
I
9 °C 10 km+ 900 ft 280° 280° 8 kt METAR LFCK 281030Z AUTO 28008KT 9999 BKN009 OVC013 09/08 Q1019 TEMPO SCT025TCU
11:00
M
9 °C 10 km+ 1.000 ft 280° 280° 11 kt METAR LFCK 281000Z AUTO 28011KT 9999 BKN010 OVC015 09/08 Q1019 TEMPO SCT025TCU
10:30
I
8 °C 10 km+ 500 ft 270° 270° 13 kt METAR LFCK 280930Z AUTO 27013KT 9999 BKN005 OVC009 08/08 Q1019 TEMPO SCT025TCU
10:00
I
8 °C 4,3 km 500 ft 270° 270° 14 kt METAR LFCK 280900Z AUTO 27014KT 4300 -RA BR OVC005/// ///TCU 08/08 Q1018 BECMG 9999 NSW BKN011
09:30
I
8 °C 10 km+ 600 ft 270° 270° 13 kt METAR LFCK 280830Z AUTO 27013KT 9999 -RA BKN006/// OVC012/// ///TCU 08/08 Q1018 TEMPO 4000 RA BECMG BKN014
09:00
I
8 °C 10 km+ 500 ft 280° 280° 9 kt METAR LFCK 280800Z AUTO 28009KT 9999 RA OVC005/// ///TCU 08/08 Q1018 TEMPO 4000 RA BKN008
08:30
I
9 °C 10 km+ 700 ft 280° 280° 10 kt METAR LFCK 280730Z AUTO 28010KT 9999 -RA BKN007/// OVC012/// ///TCU 09/08 Q1018 TEMPO 4000 RA BKN008
08:00
M
9 °C 10 km+ 1.000 ft 280° 280° 9 kt METAR LFCK 280700Z AUTO 28009KT 9999 -RA BKN010/// OVC015/// ///TCU 09/08 Q1018 TEMPO 4000 RA BKN008
07:30
M
9 °C 10 km+ 1.400 ft 270° 270° 9 kt METAR LFCK 280630Z AUTO 27009KT 9999 -RA SCT010/// BKN014/// BKN023/// ///CB 09/08 Q1018 TEMPO 4000 RA BKN008
07:00
M
9 °C 10 km+ 1.200 ft 270° 270° 7 kt METAR LFCK 280600Z AUTO 27007KT 9999 RA BKN012/// BKN022/// OVC027/// ///CB 09/08 Q1018 TEMPO 4000 RA BKN008
06:30
M
9 °C 10 km+ 1.300 ft 260° 260° 9 kt METAR LFCK 280530Z AUTO 26009KT 9999 -RA BKN013/// OVC020/// ///CB 09/08 Q1018
06:00
M
9 °C 9 km 1.300 ft 280° 280° 6 kt METAR LFCK 280500Z AUTO 28006KT 9000 -RA BKN013/// OVC021/// ///TCU 09/08 Q1018
05:30
M
9 °C 10 km+ 1.300 ft Var Var 2 kt METAR LFCK 280430Z AUTO VRB02KT 9999 OVC013/// ///TCU 09/08 Q1018
05:00
M
9 °C 5 km 1.000 ft 350° 350° 3 kt METAR LFCK 280400Z AUTO 35003KT 5000 -RA BR BKN010/// OVC014/// ///CB 09/08 Q1018
04:30
I
9 °C 6 km 900 ft 030° 030° 4 kt METAR LFCK 280330Z AUTO 03004KT 6000 -RA BKN009/// BKN018/// BKN030/// ///CB 09/08 Q1018
04:00
M
9 °C 10 km+ 1.100 ft 340° 340° 3 kt METAR LFCK 280300Z AUTO 34003KT 9999 BKN011/// BKN031/// BKN058/// ///CB 09/07 Q1018
03:30
M
9 °C 10 km+ 2.200 ft 020° 020° 4 kt METAR LFCK 280230Z AUTO 02004KT 330V040 9999 -RA BKN022 OVC028 09/07 Q1018
03:00
M
9 °C 10 km+ 1.900 ft 280° 280° 9 kt METAR LFCK 280200Z AUTO 28009KT 9999 OVC019 09/07 Q1018
02:30
V
9 °C 10 km+ 9.000 ft 270° 270° 7 kt METAR LFCK 280130Z AUTO 27007KT 9999 FEW024 BKN090 OVC110 09/07 Q1018
02:00
V
10 °C 10 km+ - Var Var 3 kt METAR LFCK 280100Z AUTO VRB03KT CAVOK 10/08 Q1017
01:30
M
10 °C 10 km+ 2.000 ft 130° 130° 5 kt METAR LFCK 280030Z AUTO 13005KT 9999 BKN020 OVC160 10/08 Q1017
01:00
M
10 °C 10 km+ 2.000 ft 150° 150° 4 kt METAR LFCK 280000Z AUTO 15004KT 9999 BKN020 BKN026 OVC160 10/08 Q1018
00:30
M
10 °C 10 km+ 2.600 ft 260° 260° 5 kt METAR LFCK 272330Z AUTO 26005KT 9999 BKN026 BKN037 OVC210 10/07 Q1019
00:00
V
10 °C 10 km+ 21.000 ft 270° 270° 2 kt METAR LFCK 272300Z AUTO 27002KT 9999 SCT036 OVC210 10/07 Q1019

27 novembre 2022

Tempo Codice Tempo metereologico Temp. Vista Base nuvolosa Vento METAR/SPECI
23:30
V
11 °C 10 km+ 3.700 ft 270° 270° 4 kt METAR LFCK 272230Z AUTO 27004KT 9999 BKN037 OVC210 11/07 Q1019
23:00
V
11 °C 10 km+ - 240° 240° 5 kt METAR LFCK 272200Z AUTO 24005KT 220V280 CAVOK 11/08 Q1019 NOSIG
22:30
V
12 °C 10 km+ 19.000 ft 180° 180° 8 kt METAR LFCK 272130Z AUTO 18008KT 130V240 9999 FEW040 OVC190 12/08 Q1019 NOSIG
22:00
V
13 °C 10 km+ - 140° 140° 13 kt METAR LFCK 272100Z AUTO 14013KT CAVOK 13/09 Q1018 NOSIG
21:30
V
12 °C 10 km+ - 120° 120° 22 kt METAR LFCK 272030Z AUTO 12022KT CAVOK 12/08 Q1017 BECMG 13008KT
21:00
V
12 °C 10 km+ - 120° 120° 22 kt METAR LFCK 272000Z AUTO 12022KT CAVOK 12/08 Q1017 BECMG 13008KT
20:30
V
12 °C 10 km+ - 120° 120° 22 kt METAR LFCK 271930Z AUTO 12022KT CAVOK 12/08 Q1017 BECMG 13008KT
20:00
V
12 °C 10 km+ - 120° 120° 23 - 33 kt METAR LFCK 271900Z AUTO 12023G33KT CAVOK 12/08 Q1017 NOSIG
19:30
V
12 °C 10 km+ - 120° 120° 23 kt METAR LFCK 271830Z AUTO 12023KT CAVOK 12/08 Q1018 TEMPO 12022G35KT
19:00
V
12 °C 10 km+ - 120° 120° 22 kt METAR LFCK 271800Z AUTO 12022KT CAVOK 12/08 Q1018 TEMPO 12022G35KT
18:30
V
12 °C 10 km+ - 120° 120° 22 kt METAR LFCK 271730Z AUTO 12022KT CAVOK 12/08 Q1018 TEMPO 12020G35KT
18:00
V
12 °C 10 km+ - 120° 120° 21 kt METAR LFCK 271700Z AUTO 12021KT CAVOK 12/07 Q1019 TEMPO 12020G35KT
17:30
V
12 °C 10 km+ - 120° 120° 19 kt METAR LFCK 271630Z AUTO 12019KT CAVOK 12/07 Q1019 TEMPO 12020G35KT
17:00
V
12 °C 10 km+ - 120° 120° 17 kt METAR LFCK 271600Z AUTO 12017KT CAVOK 12/07 Q1020 TEMPO 12020G35KT
16:30
V
13 °C 10 km+ - 120° 120° 17 kt METAR LFCK 271530Z AUTO 12017KT CAVOK 13/07 Q1020 TEMPO 12020G35KT
16:00
V
13 °C 10 km+ - 120° 120° 18 kt METAR LFCK 271500Z AUTO 12018KT CAVOK 13/07 Q1020 TEMPO 12020G35KT
15:30
V
13 °C 10 km+ - 120° 120° 18 kt METAR LFCK 271430Z AUTO 12018KT CAVOK 13/07 Q1020 TEMPO 12020G35KT
15:00
V
13 °C 10 km+ - 120° 120° 18 kt METAR LFCK 271400Z AUTO 12018KT CAVOK 13/07 Q1020 TEMPO 12020G35KT
14:30
V
13 °C 10 km+ - 110° 110° 16 kt METAR LFCK 271330Z AUTO 11016KT CAVOK 13/07 Q1021 TEMPO 12020G35KT
14:00
V
13 °C 10 km+ - 110° 110° 16 kt METAR LFCK 271300Z AUTO 11016KT CAVOK 13/07 Q1021 TEMPO 12020G35KT
13:30
V
13 °C 10 km+ - 110° 110° 18 kt METAR LFCK 271230Z AUTO 11018KT CAVOK 13/07 Q1021 TEMPO 12020G35KT
13:00
V
13 °C 10 km+ - 120° 120° 20 kt METAR LFCK 271200Z AUTO 12020KT CAVOK 13/06 Q1022 TEMPO 12020G35KT
12:30
V
13 °C 10 km+ - 110° 110° 18 kt METAR LFCK 271130Z AUTO 11018KT CAVOK 13/06 Q1022 TEMPO 12020G35KT
12:00
V
13 °C 10 km+ - 120° 120° 20 kt METAR LFCK 271100Z AUTO 12020KT CAVOK 13/05 Q1023 TEMPO 12020G35KT
11:30
V
13 °C 10 km+ - 110° 110° 18 kt METAR LFCK 271030Z AUTO 11018KT CAVOK 13/05 Q1023 TEMPO 12020G35KT
11:00
V
13 °C 10 km+ - 110° 110° 17 kt METAR LFCK 271000Z AUTO 11017KT CAVOK 13/05 Q1023 TEMPO 12020G35KT
10:30
V
12 °C 10 km+ - 120° 120° 16 kt METAR LFCK 270930Z AUTO 12016KT CAVOK 12/04 Q1023 TEMPO 12020G35KT
10:00
V
12 °C 10 km+ - 110° 110° 15 kt METAR LFCK 270900Z AUTO 11015KT CAVOK 12/03 Q1023 TEMPO 12020G35KT
09:30
V
11 °C 10 km+ - 110° 110° 16 kt METAR LFCK 270830Z AUTO 11016KT CAVOK 11/02 Q1023 TEMPO 12020G35KT
09:00
V
11 °C 10 km+ - 110° 110° 15 kt METAR LFCK 270800Z AUTO 11015KT CAVOK 11/02 Q1023 TEMPO 12020G35KT
08:30
V
10 °C 10 km+ - 110° 110° 16 kt METAR LFCK 270730Z AUTO 11016KT CAVOK 10/02 Q1023 TEMPO 12020G35KT
08:00
V
10 °C 10 km+ - 110° 110° 15 kt METAR LFCK 270700Z AUTO 11015KT CAVOK 10/01 Q1023 TEMPO 12020G35KT
07:30
V
10 °C 10 km+ - 120° 120° 16 kt METAR LFCK 270630Z AUTO 12016KT CAVOK 10/01 Q1023 TEMPO 12020G35KT
07:00
V
10 °C 10 km+ - 110° 110° 18 kt METAR LFCK 270600Z AUTO 11018KT CAVOK 10/01 Q1023 TEMPO 12020G35KT
06:30
V
10 °C 10 km+ - 110° 110° 15 kt METAR LFCK 270530Z AUTO 11015KT CAVOK 10/01 Q1024
06:00
V
10 °C 10 km+ - 120° 120° 14 kt METAR LFCK 270500Z AUTO 12014KT CAVOK 10/01 Q1024
05:30
V
10 °C 10 km+ - 110° 110° 16 kt METAR LFCK 270430Z AUTO 11016KT CAVOK 10/01 Q1024
05:00
V
10 °C 10 km+ - 110° 110° 17 kt METAR LFCK 270400Z AUTO 11017KT CAVOK 10/01 Q1024
04:30
V
10 °C 10 km+ - 110° 110° 16 kt METAR LFCK 270330Z AUTO 11016KT CAVOK 10/01 Q1024
04:00
V
10 °C 10 km+ - 110° 110° 15 kt METAR LFCK 270300Z AUTO 11015KT CAVOK 10/02 Q1025
03:30
V
10 °C 10 km+ - 110° 110° 13 kt METAR LFCK 270230Z AUTO 11013KT CAVOK 10/02 Q1025
03:00
V
10 °C 10 km+ - 100° 100° 15 kt METAR LFCK 270200Z AUTO 10015KT CAVOK 10/03 Q1025
02:30
V
10 °C 10 km+ - 110° 110° 15 kt METAR LFCK 270130Z AUTO 11015KT CAVOK 10/03 Q1025
02:00
V
10 °C 10 km+ - 110° 110° 14 kt METAR LFCK 270100Z AUTO 11014KT CAVOK 10/02 Q1025
01:30
V
10 °C 10 km+ - 110° 110° 14 kt METAR LFCK 270030Z AUTO 11014KT CAVOK 10/01 Q1026
01:00
V
9 °C 10 km+ - 110° 110° 11 kt METAR LFCK 270000Z AUTO 11011KT CAVOK 09/00 Q1026
00:30
V
6 °C 10 km+ - 110° 110° 10 kt METAR LFCK 262330Z AUTO 11010KT CAVOK 06/00 Q1026
00:00
V
4 °C 10 km+ - 100° 100° 4 kt METAR LFCK 262300Z AUTO 10004KT 060V140 CAVOK 04/M01 Q1026

26 novembre 2022

Tempo Codice Tempo metereologico Temp. Vista Base nuvolosa Vento METAR/SPECI
23:30
V
3 °C 10 km+ - Var Var 3 kt METAR LFCK 262230Z AUTO VRB03KT CAVOK 03/01 Q1026
23:00
V
2 °C 10 km+ - 090° 090° 4 kt METAR LFCK 262200Z AUTO 09004KT CAVOK 02/01 Q1026 BECMG 12014KT
22:30
V
3 °C 10 km+ - 100° 100° 5 kt METAR LFCK 262130Z AUTO 10005KT 070V130 CAVOK 03/01 Q1027 NOSIG
22:00
V
3 °C 10 km+ - Var Var 2 kt METAR LFCK 262100Z AUTO VRB02KT CAVOK 03/02 Q1027 BECMG 12014KT
21:30
V
4 °C 10 km+ - 160° 160° 5 kt METAR LFCK 262030Z AUTO 16005KT CAVOK 04/03 Q1027 NOSIG
21:00
V
4 °C 10 km+ - 160° 160° 5 kt METAR LFCK 262000Z AUTO 16005KT CAVOK 04/03 Q1027 NOSIG
20:30
V
5 °C 10 km+ - Var Var 2 kt METAR LFCK 261930Z AUTO VRB02KT CAVOK 05/05 Q1027 NOSIG
20:00
V
6 °C 10 km+ - Var Var 2 kt METAR LFCK 261900Z AUTO VRB02KT CAVOK 06/05 Q1027 NOSIG
19:30
V
6 °C 10 km+ - 100° 100° 3 kt METAR LFCK 261830Z AUTO 10003KT 060V130 CAVOK 06/06 Q1027 NOSIG
19:00
V
7 °C 10 km+ - 090° 090° 5 kt METAR LFCK 261800Z AUTO 09005KT CAVOK 07/06 Q1028 NOSIG
18:30
V
7 °C 10 km+ - 140° 140° 6 kt METAR LFCK 261730Z AUTO 14006KT CAVOK 07/05 Q1028 NOSIG
18:00
V
7 °C 10 km+ - 130° 130° 4 kt METAR LFCK 261700Z AUTO 13004KT CAVOK 07/05 Q1028 NOSIG
17:30
V
8 °C 10 km+ - 120° 120° 4 kt METAR LFCK 261630Z AUTO 12004KT CAVOK 08/07 Q1028 NOSIG
17:00
V
9 °C 10 km+ - 130° 130° 3 kt METAR LFCK 261600Z AUTO 13003KT CAVOK 09/07 Q1028 NOSIG
16:30
V
10 °C 10 km+ - Var 000° 0 kt METAR LFCK 261530Z AUTO 00000KT CAVOK 10/07 Q1028 NOSIG
16:00
V
11 °C 10 km+ - 330° 330° 3 kt METAR LFCK 261500Z AUTO 33003KT CAVOK 11/08 Q1028 NOSIG
15:30
V
12 °C 10 km+ - Var Var 1 kt METAR LFCK 261430Z AUTO VRB01KT CAVOK 12/06 Q1028 NOSIG
15:00
V
12 °C 10 km+ - Var Var 2 kt METAR LFCK 261400Z AUTO VRB02KT CAVOK 12/06 Q1029 NOSIG
14:30
V
12 °C 10 km+ - 330° 330° 4 kt METAR LFCK 261330Z AUTO 33004KT 290V010 CAVOK 12/06 Q1029 NOSIG
14:00
V
12 °C 10 km+ - 300° 300° 3 kt METAR LFCK 261300Z AUTO 30003KT 250V340 CAVOK 12/06 Q1029 NOSIG
13:30
V
12 °C 10 km+ - Var Var 2 kt METAR LFCK 261230Z AUTO VRB02KT CAVOK 12/08 Q1029 NOSIG
13:00
V
11 °C 10 km+ - Var Var 2 kt METAR LFCK 261200Z AUTO VRB02KT CAVOK 11/07 Q1030 TEMPO BKN009
12:30
V
11 °C 10 km+ - Var 000° 0 kt METAR LFCK 261130Z AUTO 00000KT CAVOK 11/07 Q1030 NOSIG
12:00
M
10 °C 10 km+ 1.000 ft Var Var 2 kt METAR LFCK 261100Z AUTO VRB02KT 9999 BKN010 BKN230 10/07 Q1031 BECMG NSC
11:30
I
9 °C 10 km+ 900 ft Var Var 2 kt METAR LFCK 261030Z AUTO VRB02KT 9999 BKN009 BKN220 09/07 Q1031 BECMG NSC
11:00
I
8 °C 10 km+ 800 ft 090° 090° 3 kt METAR LFCK 261000Z AUTO 09003KT 040V120 9999 OVC008 08/07 Q1031 BECMG NSC

Noi e le terze parti seguiamo il tuo comportamento su internet con i cookie. Se continui, riteniamo che tu sia d'accordo con la nostra Politica sui cookie.